EGNX Airport Information

Runway Information
Runway 09 Length 9491 ft width 151 ft
Elevation 306 ft Threshold 590 ft Heading 88
Runway 27 Length 9491 ft Width 151 ft
Elevation 282 ft Threshold 426 ft Heading 268
Airport Frequencies
Type APP Name APP Frequency 134.175 MHZ
Type ATIS Name ATIS Frequency 128.225 MHZ
Type Fire servi Name Frequency 121.6 MHZ
Type GND Name GND Frequency 121.9 MHZ
Type TWR Name TWR Frequency 124 MHZ
Airport Navaids
Airport Weather Information & NOTAM
ADDS - METARS form results

(1153 UTC 29 May 2020)
Data provider http://aviationweather.gov/metar/data/
 
METAR text: EGNX 291120Z 09011KT 060V120 CAVOK 21/01 Q1029
Conditions at: EGNX (EAST MIDLANDS , GB) observed 1120 UTC 29 May 2020
Temperature: 21.0°C (70°F)
Dewpoint: 1.0°C (34°F) [RH = 26%]
Pressure (altimeter): 30.38 inches Hg (1029.0 mb)
Winds: from the E (90 degrees) at 13 MPH (11 knots; 5.7 m/s)
Visibility: 6 or more miles (10+ km)
Ceiling: ceiling and visibility are OK
Clouds: unknown
Weather: no significant weather observed at this time

Forecast for: EGNX (EAST MIDLANDS , GB)
Text: TAF EGNX 291055Z 2912/3012 10009KT CAVOK
Forecast period: 1200 UTC 29 May 2020 to 1200 UTC 30 May 2020
Forecast type: FROM: standard forecast or significant change
Winds: from the E (100 degrees) at 10 MPH (9 knots; 4.6 m/s)
Visibility: 6 or more miles 10+ km)
Ceiling: unknown
Clouds: missing
Weather: NSW  (no significant weather)